Time;durP1;ratioP1;P1;durP2;ratioP2;P2;SDS_P1;SDS_P2;PMS_P1;PMS_P2;Temp;Humidity;BMP_temperature;BMP_pressure;BME280_temperature;BME280_humidity;BME280_pressure;Samples;Min_cycle;Max_cycle;Signal;HPM_P1;HPM_P2
2023/05/21 00:00:19;;;;;;;19.33;17.33;;;19.20;99.90;;;;;;5011508;28;20667;-66
2023/05/21 00:02:45;;;;;;;21.87;19.67;;;19.20;99.90;;;;;;5012030;28;20187;-66
2023/05/21 00:05:13;;;;;;;21.10;19.00;;;19.20;99.90;;;;;;5019812;28;20263;-66
2023/05/21 00:07:39;;;;;;;24.17;20.17;;;19.20;99.90;;;;;;5023086;28;20375;-66
2023/05/21 00:10:05;;;;;;;20.97;18.87;;;19.20;99.90;;;;;;5019635;28;20553;-66
2023/05/21 00:12:31;;;;;;;20.20;18.00;;;19.20;99.90;;;;;;5021230;28;20219;-66
2023/05/21 00:14:57;;;;;;;21.20;17.90;;;19.20;99.90;;;;;;5018590;28;21166;-66
2023/05/21 00:17:23;;;;;;;18.63;16.63;;;19.10;99.90;;;;;;5021752;28;20612;-66
2023/05/21 00:19:49;;;;;;;22.10;19.80;;;19.10;99.90;;;;;;5022002;28;20546;-66
2023/05/21 00:22:15;;;;;;;20.37;18.27;;;19.10;99.90;;;;;;5024803;28;20223;-66
2023/05/21 00:24:41;;;;;;;20.53;17.87;;;19.10;99.90;;;;;;5023020;28;20436;-66
2023/05/21 00:27:06;;;;;;;22.90;17.97;;;19.10;99.90;;;;;;5014150;28;20486;-66
2023/05/21 00:29:32;;;;;;;21.57;19.30;;;19.10;99.90;;;;;;5020741;28;20215;-66
2023/05/21 00:31:58;;;;;;;22.03;19.73;;;19.00;99.90;;;;;;5019847;28;20184;-66
2023/05/21 00:34:23;;;;;;;23.00;18.93;;;19.10;99.90;;;;;;5022259;28;20219;-66
2023/05/21 00:36:49;;;;;;;20.87;18.77;;;19.00;99.90;;;;;;5022669;28;20188;-66
2023/05/21 00:39:14;;;;;;;21.40;18.87;;;19.00;99.90;;;;;;5016447;28;20705;-66
2023/05/21 00:41:41;;;;;;;20.00;17.70;;;19.00;99.90;;;;;;5024626;28;20184;-66
2023/05/21 00:44:07;;;;;;;21.77;19.50;;;18.90;99.90;;;;;;5028041;28;20180;-66
2023/05/21 00:46:33;;;;;;;21.87;19.47;;;18.90;99.90;;;;;;5015289;28;20540;-66
2023/05/21 00:48:59;;;;;;;19.43;17.50;;;18.90;99.90;;;;;;5017891;28;20899;-66
2023/05/21 00:51:29;;;;;;;21.00;18.87;;;18.90;99.90;;;;;;5021483;28;20272;-66
2023/05/21 00:53:55;;;;;;;22.27;19.97;;;18.90;99.90;;;;;;5018258;28;20533;-66
2023/05/21 00:56:23;;;;;;;27.03;19.20;;;18.90;99.90;;;;;;5018665;28;20469;-66
2023/05/21 00:58:50;;;;;;;21.40;18.63;;;18.90;99.90;;;;;;5022724;28;20557;-66
2023/05/21 01:01:17;;;;;;;21.40;18.17;;;18.90;99.90;;;;;;5022015;28;21119;-66
2023/05/21 01:03:43;;;;;;;23.20;19.10;;;18.80;99.90;;;;;;5017482;28;20434;-68
2023/05/21 01:06:09;;;;;;;24.87;19.20;;;18.80;99.90;;;;;;5022433;28;20951;-66
2023/05/21 01:08:39;;;;;;;22.03;19.00;;;18.80;99.90;;;;;;5023370;28;20196;-66
2023/05/21 01:11:06;;;;;;;21.30;18.70;;;18.80;99.90;;;;;;5024841;28;20471;-66
2023/05/21 01:13:35;;;;;;;21.80;19.37;;;18.70;99.90;;;;;;5021522;28;20430;-66
2023/05/21 01:16:02;;;;;;;21.60;18.57;;;18.70;99.90;;;;;;5026728;28;20427;-66
2023/05/21 01:18:28;;;;;;;20.63;18.30;;;18.70;99.90;;;;;;5031131;28;20455;-66
2023/05/21 01:20:54;;;;;;;21.10;18.80;;;18.70;99.90;;;;;;5023484;28;20584;-66
2023/05/21 01:23:20;;;;;;;22.10;18.87;;;18.70;99.90;;;;;;5027879;28;20541;-66
2023/05/21 01:25:46;;;;;;;19.90;17.80;;;18.70;99.90;;;;;;5024911;28;20212;-66
2023/05/21 01:28:12;;;;;;;23.67;20.57;;;18.70;99.90;;;;;;5029529;28;20443;-66
2023/05/21 01:30:40;;;;;;;21.33;19.10;;;18.60;99.90;;;;;;5026501;28;20494;-66
2023/05/21 01:33:44;;;;;;;22.60;17.77;;;18.60;99.90;;;;;;5027518;28;21107;-66
2023/05/21 01:36:25;;;;;;;21.90;17.90;;;18.60;99.90;;;;;;5001592;28;20526;-66
2023/05/21 01:39:06;;;;;;;20.00;17.87;;;18.60;99.90;;;;;;5023609;28;20474;-66
2023/05/21 01:41:36;;;;;;;20.20;17.60;;;18.60;99.90;;;;;;5017184;28;20471;-66
2023/05/21 01:44:04;;;;;;;22.60;18.70;;;18.60;99.90;;;;;;5018513;28;20936;-66
2023/05/21 01:46:33;;;;;;;19.93;17.83;;;18.50;99.90;;;;;;5018430;28;20470;-66
2023/05/21 01:48:59;;;;;;;21.27;18.97;;;18.50;99.90;;;;;;5016497;28;20450;-67
2023/05/21 01:51:25;;;;;;;22.20;19.43;;;18.50;99.90;;;;;;5027446;28;21349;-67
2023/05/21 01:53:51;;;;;;;22.93;19.67;;;18.50;99.90;;;;;;5017374;28;20428;-67
2023/05/21 01:56:17;;;;;;;20.03;18.00;;;18.50;99.90;;;;;;5017209;28;20961;-67
2023/05/21 01:58:42;;;;;;;21.60;19.40;;;18.50;99.90;;;;;;5021335;28;20205;-67
2023/05/21 02:01:08;;;;;;;20.87;18.70;;;18.40;99.90;;;;;;5020622;28;20330;-67
2023/05/21 02:03:34;;;;;;;22.33;20.03;;;18.40;99.90;;;;;;5026921;28;20180;-67
2023/05/21 02:05:59;;;;;;;19.97;17.93;;;18.40;99.90;;;;;;5021632;28;20179;-67
2023/05/21 02:08:26;;;;;;;23.40;19.60;;;18.40;99.90;;;;;;5035297;28;20278;-67
2023/05/21 02:10:52;;;;;;;21.90;19.60;;;18.40;99.90;;;;;;5023106;28;20205;-67
2023/05/21 02:13:21;;;;;;;21.57;19.37;;;18.40;99.90;;;;;;5027777;28;20432;-67
2023/05/21 02:15:47;;;;;;;23.60;19.40;;;18.40;99.90;;;;;;5019731;28;20220;-67
2023/05/21 02:18:15;;;;;;;20.87;18.67;;;18.40;99.90;;;;;;5027916;28;20463;-67
2023/05/21 02:20:41;;;;;;;24.83;18.90;;;18.30;99.90;;;;;;5019016;28;20205;-67
2023/05/21 02:23:07;;;;;;;20.40;18.30;;;18.30;99.90;;;;;;5027172;28;20411;-67
2023/05/21 02:25:33;;;;;;;20.67;18.47;;;18.30;99.90;;;;;;5016196;28;20428;-67
2023/05/21 02:27:59;;;;;;;21.10;18.13;;;18.30;99.90;;;;;;5016266;28;20180;-67
2023/05/21 02:30:25;;;;;;;22.37;19.87;;;18.30;99.90;;;;;;5025943;28;20236;-67
2023/05/21 02:32:52;;;;;;;24.60;19.47;;;18.30;99.90;;;;;;5026511;28;20983;-67
2023/05/21 02:35:18;;;;;;;22.63;19.57;;;18.30;99.90;;;;;;5022703;28;20172;-67
2023/05/21 02:37:44;;;;;;;21.37;18.53;;;18.20;99.90;;;;;;5016994;28;20440;-67
2023/05/21 02:40:10;;;;;;;22.30;18.30;;;18.20;99.90;;;;;;5020874;28;20322;-67
2023/05/21 02:42:38;;;;;;;22.00;19.30;;;18.20;99.90;;;;;;5024155;28;20181;-67
2023/05/21 02:45:05;;;;;;;21.20;18.40;;;18.20;99.90;;;;;;5014895;28;20855;-66
2023/05/21 02:47:31;;;;;;;24.20;19.37;;;18.20;99.90;;;;;;5016087;28;20447;-67
2023/05/21 02:49:58;;;;;;;22.77;19.00;;;18.20;99.90;;;;;;5016392;28;20520;-67
2023/05/21 02:52:23;;;;;;;20.50;18.30;;;18.20;99.90;;;;;;5017764;28;20683;-67
2023/05/21 02:54:50;;;;;;;27.90;19.83;;;18.10;99.90;;;;;;5010535;28;20452;-67
2023/05/21 02:57:17;;;;;;;21.80;19.50;;;18.10;99.90;;;;;;5017694;28;20266;-67
2023/05/21 02:59:43;;;;;;;21.23;18.90;;;18.10;99.90;;;;;;5024124;28;20533;-67
2023/05/21 03:02:08;;;;;;;23.20;20.07;;;18.00;99.90;;;;;;5013669;28;20522;-67
2023/05/21 03:04:37;;;;;;;23.67;19.80;;;18.00;99.90;;;;;;5016716;28;20439;-67
2023/05/21 03:07:06;;;;;;;22.63;20.03;;;18.00;99.90;;;;;;5015325;28;20545;-67
2023/05/21 03:09:31;;;;;;;22.90;20.57;;;18.00;99.90;;;;;;5022682;28;20463;-67
2023/05/21 03:11:57;;;;;;;24.67;19.60;;;17.90;99.90;;;;;;5020482;28;20426;-67
2023/05/21 03:14:23;;;;;;;21.87;18.97;;;17.90;99.90;;;;;;5026645;28;20180;-67
2023/05/21 03:16:50;;;;;;;21.27;18.50;;;17.90;99.90;;;;;;5019070;28;20747;-67
2023/05/21 03:19:15;;;;;;;21.23;18.20;;;17.90;99.90;;;;;;5026574;28;20525;-67
2023/05/21 03:21:41;;;;;;;22.73;19.00;;;17.80;99.90;;;;;;5020309;28;20430;-67
2023/05/21 03:24:08;;;;;;;21.13;18.73;;;17.80;99.90;;;;;;5013237;28;20192;-67
2023/05/21 03:26:34;;;;;;;21.83;19.60;;;17.80;99.90;;;;;;5009476;28;20479;-67
2023/05/21 03:29:00;;;;;;;25.07;21.10;;;17.80;99.90;;;;;;5020245;28;20482;-67
2023/05/21 03:31:26;;;;;;;23.30;19.67;;;17.70;99.90;;;;;;5018127;28;20187;-67
2023/05/21 03:33:52;;;;;;;26.53;22.03;;;17.70;99.90;;;;;;5018684;28;20436;-67
2023/05/21 03:36:18;;;;;;;23.50;19.53;;;17.70;99.90;;;;;;5015433;28;20184;-67
2023/05/21 03:38:43;;;;;;;24.27;18.90;;;17.70;99.90;;;;;;5014003;28;20448;-67
2023/05/21 03:41:09;;;;;;;23.03;19.73;;;17.70;99.90;;;;;;5018296;28;20193;-67
2023/05/21 03:43:35;;;;;;;22.03;19.70;;;17.70;99.90;;;;;;5023401;28;20527;-67
2023/05/21 03:46:00;;;;;;;24.53;20.60;;;17.70;99.90;;;;;;5018680;28;20185;-67
2023/05/21 03:48:26;;;;;;;25.83;21.07;;;17.60;99.90;;;;;;5017981;28;20215;-67
2023/05/21 03:50:52;;;;;;;22.80;20.20;;;17.60;99.90;;;;;;5020912;28;20389;-67
2023/05/21 03:53:17;;;;;;;25.77;21.37;;;17.60;99.90;;;;;;5019521;28;20188;-67
2023/05/21 03:55:43;;;;;;;24.67;19.80;;;17.60;99.90;;;;;;5014734;28;20315;-67
2023/05/21 03:58:09;;;;;;;24.90;20.60;;;17.60;99.90;;;;;;5018808;28;21120;-67
2023/05/21 04:00:36;;;;;;;26.03;21.07;;;17.60;99.90;;;;;;5016346;28;20181;-67
2023/05/21 04:03:02;;;;;;;22.63;20.27;;;17.60;99.90;;;;;;5036529;28;20496;-67
2023/05/21 04:05:28;;;;;;;26.20;21.60;;;17.50;99.90;;;;;;5013828;28;20797;-67
2023/05/21 04:07:53;;;;;;;24.50;21.20;;;17.50;99.90;;;;;;5021332;28;20422;-67
2023/05/21 04:10:19;;;;;;;28.70;23.53;;;17.50;99.90;;;;;;5014503;28;20635;-67
2023/05/21 04:12:47;;;;;;;25.47;21.47;;;17.50;99.90;;;;;;5021470;28;20628;-67
2023/05/21 04:15:17;;;;;;;23.40;20.87;;;17.50;99.90;;;;;;5016523;28;20554;-67
2023/05/21 04:17:44;;;;;;;22.87;20.43;;;17.50;99.90;;;;;;5020445;28;20435;-67
2023/05/21 04:20:10;;;;;;;23.90;20.93;;;17.50;99.90;;;;;;5019108;28;20493;-67
2023/05/21 04:22:36;;;;;;;24.40;21.00;;;17.50;99.90;;;;;;5016353;28;20438;-67
2023/05/21 04:25:02;;;;;;;27.57;22.47;;;17.50;99.90;;;;;;5020769;28;20427;-67
2023/05/21 04:27:28;;;;;;;26.30;20.47;;;17.50;99.90;;;;;;5023431;28;20608;-67
2023/05/21 04:29:53;;;;;;;23.03;19.93;;;17.50;99.90;;;;;;5029494;28;20210;-67
2023/05/21 04:32:19;;;;;;;26.30;21.40;;;17.50;99.90;;;;;;5022460;28;20248;-67
2023/05/21 04:34:45;;;;;;;22.43;19.93;;;17.50;99.90;;;;;;5027549;28;20176;-67
2023/05/21 04:37:10;;;;;;;29.43;22.43;;;17.50;99.90;;;;;;5023700;28;20991;-67
2023/05/21 04:39:36;;;;;;;27.67;22.57;;;17.50;99.90;;;;;;5026517;28;20205;-67
2023/05/21 04:42:02;;;;;;;25.33;20.80;;;17.50;99.90;;;;;;5028580;28;20184;-67
2023/05/21 04:44:28;;;;;;;26.07;21.30;;;17.50;99.90;;;;;;5030528;28;20227;-67
2023/05/21 04:46:56;;;;;;;26.20;22.77;;;17.50;99.90;;;;;;5022315;28;20230;-67
2023/05/21 04:49:21;;;;;;;26.23;21.10;;;17.50;99.90;;;;;;5022918;28;20511;-67
2023/05/21 04:51:48;;;;;;;24.73;20.30;;;17.60;99.90;;;;;;5015215;28;20453;-67
2023/05/21 04:54:14;;;;;;;26.13;21.00;;;17.60;99.90;;;;;;5023031;28;20181;-66
2023/05/21 04:56:39;;;;;;;23.33;20.63;;;17.60;99.90;;;;;;5026571;28;20979;-66
2023/05/21 04:59:05;;;;;;;24.23;19.70;;;17.70;99.90;;;;;;5021792;28;20431;-67
2023/05/21 05:01:31;;;;;;;23.77;21.20;;;17.70;99.90;;;;;;5014985;28;20204;-66
2023/05/21 05:03:57;;;;;;;24.13;21.07;;;17.70;99.90;;;;;;5015903;28;20200;-66
2023/05/21 05:06:24;;;;;;;26.90;21.27;;;17.80;99.90;;;;;;5014317;28;22055;-67
2023/05/21 05:08:50;;;;;;;25.07;19.13;;;17.80;99.90;;;;;;5016475;28;20626;-68
2023/05/21 05:11:16;;;;;;;21.93;19.60;;;17.80;99.90;;;;;;5017956;28;20509;-65
2023/05/21 05:13:41;;;;;;;21.33;18.90;;;17.90;99.90;;;;;;5025689;28;20176;-65
2023/05/21 05:16:07;;;;;;;23.80;19.17;;;17.90;99.90;;;;;;5021651;28;20193;-65
2023/05/21 05:18:34;;;;;;;23.23;20.57;;;18.00;99.90;;;;;;5033135;28;20197;-67
2023/05/21 05:21:00;;;;;;;21.33;19.10;;;18.00;99.90;;;;;;5026936;28;20295;-67
2023/05/21 05:23:26;;;;;;;21.13;18.23;;;18.10;99.90;;;;;;5030975;28;20420;-65
2023/05/21 05:25:51;;;;;;;23.97;19.37;;;18.20;99.90;;;;;;5026785;28;20611;-66
2023/05/21 05:28:17;;;;;;;24.40;19.13;;;18.20;99.90;;;;;;5030620;28;20565;-65
2023/05/21 05:30:43;;;;;;;25.10;21.20;;;18.20;99.90;;;;;;5027799;28;20925;-65
2023/05/21 05:33:08;;;;;;;28.13;19.53;;;18.30;99.90;;;;;;5029338;28;20600;-67
2023/05/21 05:35:35;;;;;;;23.20;19.67;;;18.40;99.90;;;;;;5025622;28;20583;-67
2023/05/21 05:38:00;;;;;;;22.93;18.50;;;18.40;99.90;;;;;;5026260;28;20204;-66
2023/05/21 05:40:26;;;;;;;22.23;19.47;;;18.50;99.90;;;;;;5034685;28;21029;-67
2023/05/21 05:42:52;;;;;;;21.43;18.00;;;18.50;99.90;;;;;;5024529;28;20189;-66
2023/05/21 05:45:18;;;;;;;21.50;19.10;;;18.60;99.90;;;;;;5029369;28;20195;-66
2023/05/21 05:47:44;;;;;;;22.97;18.90;;;18.60;99.90;;;;;;5027268;28;20427;-67
2023/05/21 05:50:10;;;;;;;21.13;18.57;;;18.70;99.90;;;;;;5024217;28;20462;-66
2023/05/21 05:52:35;;;;;;;25.93;19.33;;;18.70;99.90;;;;;;5023695;28;20180;-66
2023/05/21 05:55:01;;;;;;;22.30;18.13;;;18.80;99.90;;;;;;5022615;28;20180;-66
2023/05/21 05:57:27;;;;;;;24.87;17.70;;;18.80;99.90;;;;;;5035172;28;20214;-66
2023/05/21 05:59:52;;;;;;;21.23;19.03;;;18.90;99.90;;;;;;5025157;28;20200;-67
2023/05/21 06:02:18;;;;;;;20.00;17.70;;;18.90;99.90;;;;;;5024582;28;20180;-67
2023/05/21 06:04:43;;;;;;;22.93;18.93;;;19.00;99.90;;;;;;5024596;28;20471;-66
2023/05/21 06:07:09;;;;;;;22.00;17.63;;;19.00;99.90;;;;;;5028204;28;20185;-66
2023/05/21 06:09:34;;;;;;;21.13;16.97;;;19.00;99.90;;;;;;5018748;28;20772;-66
2023/05/21 06:12:00;;;;;;;21.43;17.37;;;19.10;99.90;;;;;;5022340;28;20362;-67
2023/05/21 06:14:26;;;;;;;26.50;20.60;;;19.20;99.90;;;;;;5019469;28;20548;-67
2023/05/21 06:16:51;;;;;;;22.77;20.17;;;19.20;99.90;;;;;;5017050;28;20546;-68
2023/05/21 06:19:17;;;;;;;21.17;17.97;;;19.30;99.90;;;;;;5024491;28;20702;-67
2023/05/21 06:21:42;;;;;;;20.83;17.33;;;19.30;99.90;;;;;;5029094;28;20621;-67
2023/05/21 06:24:08;;;;;;;21.50;18.80;;;19.40;99.90;;;;;;5029804;28;20527;-67
2023/05/21 06:26:33;;;;;;;20.97;18.30;;;19.50;99.90;;;;;;5030271;28;20209;-67
2023/05/21 06:28:59;;;;;;;20.13;18.07;;;19.50;99.90;;;;;;5018726;28;20576;-67
2023/05/21 06:31:24;;;;;;;22.40;17.60;;;19.60;99.90;;;;;;5019714;28;20303;-67
2023/05/21 06:33:50;;;;;;;26.20;19.57;;;19.70;99.90;;;;;;5015830;28;20193;-67
2023/05/21 06:36:16;;;;;;;24.17;20.90;;;19.80;99.90;;;;;;5020174;28;20187;-67
2023/05/21 06:38:41;;;;;;;20.43;17.77;;;19.80;99.90;;;;;;5014638;28;20200;-67
2023/05/21 06:41:07;;;;;;;26.20;23.37;;;19.90;99.90;;;;;;5028405;28;20216;-67
2023/05/21 06:43:33;;;;;;;23.30;21.00;;;20.00;99.90;;;;;;5017531;28;20191;-67
2023/05/21 06:46:00;;;;;;;19.47;17.30;;;20.10;99.90;;;;;;5019885;28;20776;-67
2023/05/21 06:48:26;;;;;;;19.47;17.33;;;20.20;99.90;;;;;;5023093;28;20834;-67
2023/05/21 06:50:51;;;;;;;21.90;19.60;;;20.30;99.90;;;;;;5012581;28;20463;-67
2023/05/21 06:53:17;;;;;;;22.53;20.20;;;20.30;99.90;;;;;;5008708;28;20179;-67
2023/05/21 06:55:43;;;;;;;22.00;18.90;;;20.40;99.90;;;;;;5020121;28;20633;-67
2023/05/21 06:58:12;;;;;;;27.17;22.43;;;20.50;99.90;;;;;;5021651;28;20497;-66
2023/05/21 07:00:38;;;;;;;18.87;16.83;;;20.50;99.90;;;;;;5026635;28;20797;-67
2023/05/21 07:03:03;;;;;;;19.73;17.63;;;20.60;99.90;;;;;;5027478;28;20546;-67
2023/05/21 07:05:29;;;;;;;21.83;18.50;;;20.70;99.90;;;;;;5018705;28;20253;-68
2023/05/21 07:07:55;;;;;;;18.83;16.87;;;20.80;99.90;;;;;;5013758;28;20240;-67
2023/05/21 07:10:20;;;;;;;23.60;18.60;;;20.90;99.90;;;;;;5020182;28;20228;-66
2023/05/21 07:12:46;;;;;;;18.73;16.73;;;20.90;99.90;;;;;;5021957;28;20710;-67
2023/05/21 07:15:11;;;;;;;16.93;15.23;;;21.00;99.90;;;;;;5017347;28;20192;-67
2023/05/21 07:17:37;;;;;;;19.70;17.60;;;21.00;99.90;;;;;;5022228;28;20184;-66
2023/05/21 07:20:06;;;;;;;23.60;19.37;;;21.10;99.90;;;;;;5022276;28;20219;-67
2023/05/21 07:22:32;;;;;;;21.67;19.37;;;21.20;99.90;;;;;;5018860;28;20708;-67
2023/05/21 07:24:57;;;;;;;22.10;19.80;;;21.20;99.90;;;;;;5023168;28;20426;-67
2023/05/21 07:27:23;;;;;;;19.33;17.33;;;21.30;99.90;;;;;;5018240;28;20325;-67
2023/05/21 07:29:49;;;;;;;26.97;21.77;;;21.40;99.90;;;;;;5026792;28;20743;-66
2023/05/21 07:32:14;;;;;;;17.17;15.37;;;21.50;99.90;;;;;;5021830;28;20211;-67
2023/05/21 07:34:40;;;;;;;18.37;16.50;;;21.50;99.90;;;;;;5020223;28;20704;-68
2023/05/21 07:37:05;;;;;;;20.07;16.43;;;21.60;99.90;;;;;;5022671;28;20288;-67
2023/05/21 07:39:31;;;;;;;18.80;16.87;;;21.70;99.90;;;;;;5026560;28;20220;-66
2023/05/21 07:41:56;;;;;;;21.77;19.43;;;21.80;99.90;;;;;;5017407;28;20194;-66
2023/05/21 07:44:23;;;;;;;17.37;15.87;;;21.80;99.90;;;;;;5027089;28;20588;-65
2023/05/21 07:46:48;;;;;;;19.80;17.13;;;21.90;99.90;;;;;;5018738;28;20215;-67
2023/05/21 07:49:15;;;;;;;19.80;17.77;;;22.00;99.90;;;;;;5022247;28;20463;-67
2023/05/21 07:51:42;;;;;;;18.77;16.30;;;22.10;99.90;;;;;;5016273;28;20190;-67
2023/05/21 07:54:08;;;;;;;16.07;14.40;;;22.10;99.90;;;;;;5016494;28;20442;-67
2023/05/21 07:56:33;;;;;;;20.83;16.37;;;22.20;99.90;;;;;;5010388;28;20487;-66
2023/05/21 07:59:00;;;;;;;18.40;16.30;;;22.20;99.90;;;;;;5014604;28;20203;-66
2023/05/21 08:01:28;;;;;;;18.00;16.10;;;22.30;99.90;;;;;;5014894;28;20207;-66
2023/05/21 08:03:54;;;;;;;16.73;15.03;;;22.40;99.90;;;;;;5017011;28;20427;-67
2023/05/21 08:06:21;;;;;;;17.50;15.80;;;22.40;99.90;;;;;;5015021;28;20560;-66
2023/05/21 08:08:46;;;;;;;18.07;16.17;;;22.40;99.90;;;;;;5010833;28;20287;-66
2023/05/21 08:11:12;;;;;;;17.30;15.57;;;22.50;99.90;;;;;;5014874;28;20573;-66
2023/05/21 08:13:37;;;;;;;15.43;14.03;;;22.50;99.90;;;;;;5013382;28;20646;-66
2023/05/21 08:16:04;;;;;;;16.33;14.73;;;22.50;99.90;;;;;;5011804;28;20215;-66
2023/05/21 08:18:30;;;;;;;18.70;14.77;;;22.50;99.90;;;;;;5017475;28;20201;-66
2023/05/21 08:20:55;;;;;;;15.63;13.93;;;22.50;99.90;;;;;;5011487;28;20462;-67
2023/05/21 08:23:21;;;;;;;17.50;15.80;;;22.50;99.90;;;;;;5010939;28;20185;-67
2023/05/21 08:25:46;;;;;;;16.70;15.10;;;22.50;99.90;;;;;;5024192;28;20181;-66
2023/05/21 08:28:12;;;;;;;17.53;15.83;;;22.50;99.90;;;;;;5011246;28;21025;-66
2023/05/21 08:30:38;;;;;;;17.70;15.80;;;22.60;99.90;;;;;;5018727;28;20286;-66
2023/05/21 08:33:03;;;;;;;17.87;15.40;;;22.60;99.90;;;;;;5020926;28;20176;-66
2023/05/21 08:35:29;;;;;;;17.03;15.33;;;22.60;99.90;;;;;;5016235;28;20180;-67
2023/05/21 08:37:54;;;;;;;16.80;15.27;;;22.60;99.90;;;;;;5018839;28;20188;-66
2023/05/21 08:40:20;;;;;;;16.70;14.77;;;22.60;99.90;;;;;;5009838;28;20172;-67
2023/05/21 08:42:48;;;;;;;17.20;15.50;;;22.60;99.90;;;;;;5017369;28;20242;-65
2023/05/21 08:45:18;;;;;;;16.80;14.90;;;22.60;99.90;;;;;;5018908;28;20181;-66
2023/05/21 08:47:45;;;;;;;16.80;15.10;;;22.60;99.90;;;;;;5012585;28;20453;-66
2023/05/21 08:50:17;;;;;;;18.00;14.70;;;22.60;99.90;;;;;;5013369;28;20495;-66
2023/05/21 08:52:42;;;;;;;16.50;14.80;;;22.60;99.90;;;;;;5012709;28;20433;-66
2023/05/21 08:55:09;;;;;;;16.13;14.43;;;22.60;99.90;;;;;;5019940;28;20436;-66
2023/05/21 08:57:35;;;;;;;14.53;13.10;;;22.70;99.90;;;;;;5022005;28;20230;-66
2023/05/21 09:00:03;;;;;;;17.10;15.50;;;22.70;99.90;;;;;;5017953;28;20485;-66
2023/05/21 09:02:33;;;;;;;14.70;13.30;;;22.70;99.90;;;;;;5019035;28;20507;-66
2023/05/21 09:05:02;;;;;;;16.40;14.70;;;22.80;99.90;;;;;;5015404;28;20431;-66
2023/05/21 09:07:30;;;;;;;17.40;15.63;;;22.90;99.90;;;;;;5016682;28;20991;-66
2023/05/21 09:09:59;;;;;;;15.30;13.80;;;23.00;99.90;;;;;;5017593;28;20467;-66
2023/05/21 09:12:26;;;;;;;15.80;13.13;;;23.00;99.90;;;;;;5014894;28;20930;-66
2023/05/21 09:14:52;;;;;;;15.87;14.27;;;23.10;99.90;;;;;;5020604;28;20432;-66
2023/05/21 09:17:19;;;;;;;15.30;13.70;;;23.20;99.90;;;;;;5016366;28;20430;-66
2023/05/21 09:20:14;;;;;;;15.70;14.10;;;23.30;99.90;;;;;;5017245;28;20217;-66
2023/05/21 09:22:45;;;;;;;16.10;14.60;;;23.40;99.90;;;;;;5017988;28;20442;-66
2023/05/21 09:25:16;;;;;;;15.03;13.63;;;23.50;99.90;;;;;;5014048;28;20436;-65
2023/05/21 09:27:42;;;;;;;16.47;14.80;;;23.60;99.90;;;;;;5022058;28;20459;-67
2023/05/21 09:30:10;;;;;;;14.97;13.50;;;23.70;99.90;;;;;;5032693;28;20478;-66
2023/05/21 09:32:36;;;;;;;13.50;12.27;;;23.80;99.90;;;;;;5016971;28;20824;-66
2023/05/21 09:35:10;;;;;;;15.17;13.63;;;24.00;99.90;;;;;;5015393;28;20434;-67
2023/05/21 09:37:47;;;;;;;14.63;13.20;;;24.10;99.90;;;;;;5016597;28;20931;-67
2023/05/21 09:40:14;;;;;;;14.67;12.80;;;24.20;99.90;;;;;;5010894;28;20470;-66
2023/05/21 09:42:42;;;;;;;15.40;14.00;;;24.40;99.90;;;;;;5015382;28;20478;-67
2023/05/21 09:45:10;;;;;;;14.67;13.27;;;24.50;99.90;;;;;;5018924;28;20560;-66
2023/05/21 09:47:43;;;;;;;13.87;12.67;;;24.60;99.90;;;;;;5012903;28;20459;-66
2023/05/21 09:50:19;;;;;;;15.87;14.27;;;24.70;99.90;;;;;;5010333;28;20462;-66
2023/05/21 09:52:45;;;;;;;16.60;15.00;;;24.80;99.90;;;;;;5009041;28;20485;-67
2023/05/21 09:55:12;;;;;;;15.90;14.40;;;25.00;99.90;;;;;;5012035;28;20439;-67
2023/05/21 09:57:42;;;;;;;15.10;13.60;;;25.00;99.90;;;;;;5019316;28;20662;-67
2023/05/21 10:00:16;;;;;;;16.23;14.60;;;25.20;99.90;;;;;;5018956;28;20440;-67
2023/05/21 10:02:44;;;;;;;16.17;14.63;;;25.30;99.90;;;;;;5016706;28;20486;-67
2023/05/21 10:05:12;;;;;;;15.40;14.00;;;25.30;99.90;;;;;;5018207;28;20449;-67
2023/05/21 10:07:40;;;;;;;15.50;14.03;;;25.40;99.90;;;;;;5014011;28;20951;-66
2023/05/21 10:10:10;;;;;;;14.03;12.73;;;25.60;99.90;;;;;;5014436;28;20521;-67
2023/05/21 10:12:36;;;;;;;14.20;13.00;;;25.70;99.90;;;;;;5018510;28;20434;-67
2023/05/21 10:15:03;;;;;;;14.80;13.50;;;25.70;99.90;;;;;;5018720;28;21105;-68
2023/05/21 10:17:29;;;;;;;15.33;13.73;;;25.90;99.90;;;;;;5015802;28;20514;-67
2023/05/21 10:19:56;;;;;;;14.53;13.23;;;26.00;99.90;;;;;;5010815;28;21072;-67
2023/05/21 10:22:23;;;;;;;12.90;11.60;;;26.10;99.90;;;;;;5011880;28;20435;-66
2023/05/21 10:24:50;;;;;;;16.23;13.57;;;26.30;99.90;;;;;;5013943;28;20910;-66
2023/05/21 10:27:17;;;;;;;14.33;12.93;;;26.40;99.90;;;;;;5017986;28;20814;-66
2023/05/21 10:29:44;;;;;;;13.50;12.13;;;26.50;99.90;;;;;;5020298;28;20467;-66
2023/05/21 10:32:11;;;;;;;15.63;13.20;;;26.60;99.90;;;;;;5016100;28;20493;-66
2023/05/21 10:34:37;;;;;;;13.10;11.90;;;26.60;99.90;;;;;;5012111;28;20442;-66
2023/05/21 10:37:06;;;;;;;14.20;12.70;;;26.80;99.90;;;;;;5019362;28;20435;-67
2023/05/21 10:39:33;;;;;;;13.83;12.63;;;26.90;99.90;;;;;;5014651;28;20204;-66
2023/05/21 10:42:28;;;;;;;20.83;12.10;;;27.00;99.90;;;;;;5022749;28;20433;-66
2023/05/21 10:45:02;;;;;;;12.57;11.47;;;27.10;99.90;;;;;;5010103;28;20432;-66
2023/05/21 10:47:46;;;;;;;12.93;11.73;;;27.20;99.90;;;;;;5019545;28;20428;-66
2023/05/21 10:50:41;;;;;;;12.13;10.90;;;27.30;99.90;;;;;;5028802;28;20837;-67
2023/05/21 10:53:46;;;;;;;12.17;11.17;;;27.40;99.90;;;;;;5030506;28;20457;-66
2023/05/21 10:56:21;;;;;;;12.23;11.13;;;27.60;99.90;;;;;;5023530;28;20569;-66
2023/05/21 10:59:20;;;;;;;12.23;11.13;;;27.50;99.90;;;;;;5029753;28;20587;-66
2023/05/21 11:01:49;;;;;;;12.07;10.97;;;27.50;99.90;;;;;;5026040;28;21071;-66
2023/05/21 11:04:16;;;;;;;13.17;11.87;;;27.60;99.90;;;;;;5034063;28;20422;-67
2023/05/21 11:06:46;;;;;;;12.87;11.67;;;27.60;99.90;;;;;;5024639;28;20407;-66
2023/05/21 11:09:13;;;;;;;12.33;11.13;;;27.70;99.90;;;;;;5046906;28;20467;-66
2023/05/21 11:11:44;;;;;;;12.53;11.33;;;27.70;99.90;;;;;;5023842;28;20446;-67
2023/05/21 11:14:31;;;;;;;12.43;11.33;;;27.70;99.90;;;;;;5026898;28;20423;-67
2023/05/21 11:16:58;;;;;;;10.83;9.93;;;27.80;99.30;;;;;;5019845;28;20498;-66
2023/05/21 11:19:36;;;;;;;11.87;10.87;;;27.80;99.40;;;;;;5019979;28;20454;-66
2023/05/21 11:22:07;;;;;;;11.10;9.60;;;27.80;99.10;;;;;;5026168;28;20422;-66
2023/05/21 11:24:36;;;;;;;11.13;10.13;;;27.80;98.60;;;;;;5026857;28;20419;-66
2023/05/21 11:27:03;;;;;;;11.13;10.10;;;27.90;97.80;;;;;;5020628;28;20489;-66
2023/05/21 11:29:39;;;;;;;10.87;9.87;;;27.90;97.50;;;;;;5029035;28;20423;-67
2023/05/21 11:32:07;;;;;;;10.77;9.87;;;27.90;97.40;;;;;;5023175;28;20426;-66
2023/05/21 11:34:40;;;;;;;10.43;9.53;;;28.00;97.20;;;;;;5026304;28;20419;-66
2023/05/21 11:37:33;;;;;;;11.50;10.50;;;28.10;96.70;;;;;;5029350;28;20519;-66
2023/05/21 11:40:48;;;;;;;10.70;9.70;;;28.20;96.20;;;;;;5021320;28;20444;-66
2023/05/21 11:43:14;;;;;;;10.13;9.17;;;28.30;95.30;;;;;;4989883;28;20566;-66
2023/05/21 11:45:45;;;;;;;10.80;9.80;;;28.40;94.70;;;;;;4994745;28;20394;-67
2023/05/21 11:48:13;;;;;;;10.80;9.40;;;28.50;94.10;;;;;;5011948;28;20719;-66
2023/05/21 11:50:41;;;;;;;11.00;10.00;;;28.60;93.70;;;;;;5028792;28;20824;-66
2023/05/21 11:53:07;;;;;;;11.80;10.00;;;28.80;93.30;;;;;;5022499;28;20419;-66
2023/05/21 11:55:37;;;;;;;10.90;9.80;;;29.00;93.00;;;;;;5019530;28;20450;-66
2023/05/21 11:58:03;;;;;;;10.40;9.50;;;29.30;92.80;;;;;;5021348;28;20521;-66
2023/05/21 12:00:29;;;;;;;11.87;10.10;;;29.60;92.50;;;;;;5027992;28;20432;-66
2023/05/21 12:02:55;;;;;;;10.00;9.10;;;30.40;91.80;;;;;;5019636;28;20455;-66
2023/05/21 12:05:20;;;;;;;11.07;10.17;;;31.40;90.90;;;;;;5020784;28;20181;-66
2023/05/21 12:07:49;;;;;;;10.27;9.33;;;32.40;88.20;;;;;;5028600;28;20433;-66
2023/05/21 12:10:19;;;;;;;10.07;9.27;;;33.20;84.30;;;;;;5023998;28;20206;-67
2023/05/21 12:12:44;;;;;;;11.10;10.10;;;33.80;81.00;;;;;;5024717;28;20844;-66
2023/05/21 12:15:11;;;;;;;11.00;9.93;;;34.00;77.70;;;;;;5025057;28;20568;-66
2023/05/21 12:17:38;;;;;;;9.90;9.07;;;34.00;75.10;;;;;;5016130;28;20928;-66
2023/05/21 12:20:07;;;;;;;10.37;9.47;;;33.80;73.50;;;;;;5026679;28;20653;-66
2023/05/21 12:22:32;;;;;;;10.13;9.23;;;33.30;72.20;;;;;;5026619;28;20985;-65
2023/05/21 12:24:59;;;;;;;10.47;9.57;;;32.90;72.60;;;;;;5023226;28;20486;-66
2023/05/21 12:27:27;;;;;;;10.90;9.80;;;32.60;73.10;;;;;;5026048;28;20552;-66
2023/05/21 12:29:53;;;;;;;10.83;9.93;;;32.30;72.80;;;;;;5033896;28;21061;-66